createdAt,value
2023-01-01T00:03:52.447Z,6.57
2023-01-01T00:07:54.744Z,6.57
2023-01-01T00:11:56.988Z,6.44
2023-01-01T00:16:16.798Z,6.33
2023-01-01T00:19:36.087Z,6.18
2023-01-01T00:23:36.725Z,6.14
2023-01-01T00:27:36.624Z,6.17
2023-01-01T00:31:36.821Z,6.21
2023-01-01T00:35:35.927Z,6.25
2023-01-01T00:39:35.222Z,6.27
2023-01-01T00:43:35.277Z,6.30
2023-01-01T00:47:34.826Z,6.33
2023-01-01T00:51:37.081Z,6.28
2023-01-01T00:55:36.792Z,6.26
2023-01-01T00:59:49.702Z,6.21
2023-01-01T01:03:49.868Z,6.18
2023-01-01T01:07:27.246Z,6.16
2023-01-01T01:11:26.762Z,6.15
2023-01-01T01:15:26.564Z,6.16
2023-01-01T01:19:26.977Z,6.19
2023-01-01T01:23:26.783Z,6.21
2023-01-01T01:27:26.586Z,6.20
2023-01-01T01:31:27.625Z,6.18
2023-01-01T01:35:27.676Z,6.17
2023-01-01T01:39:27.086Z,6.17
2023-01-01T01:43:46.019Z,6.15
2023-01-01T01:47:45.277Z,6.08
2023-01-01T01:51:45.154Z,6.00
2023-01-01T01:56:00.143Z,5.98
2023-01-01T02:00:03.725Z,6.00
2023-01-01T02:04:06.574Z,6.03
2023-01-01T02:08:07.206Z,6.07
2023-01-01T02:12:06.368Z,6.06
2023-01-01T02:16:19.392Z,6.16
2023-01-01T02:20:37.832Z,6.31
2023-01-01T02:24:44.255Z,6.43
2023-01-01T02:28:52.772Z,6.51
2023-01-01T02:32:55.995Z,6.34
2023-01-01T02:36:57.654Z,6.27
2023-01-01T02:41:00.299Z,6.38
2023-01-01T02:44:59.927Z,6.42
2023-01-01T02:49:03.337Z,6.60
2023-01-01T02:53:34.031Z,6.65
2023-01-01T02:57:40.873Z,6.73
2023-01-01T03:01:49.822Z,6.80
2023-01-01T03:06:24.052Z,6.99
2023-01-01T03:10:29.801Z,7.15
2023-01-01T03:14:48.114Z,7.18
2023-01-01T03:19:12.266Z,7.37
2023-01-01T03:22:27.291Z,7.43
2023-01-01T03:26:27.898Z,7.35
2023-01-01T03:30:29.039Z,7.39
2023-01-01T03:34:32.184Z,7.38
2023-01-01T03:38:39.246Z,7.41
2023-01-01T03:42:41.272Z,7.48
2023-01-01T03:46:41.568Z,7.47
2023-01-01T03:50:59.978Z,7.51
2023-01-01T03:55:18.103Z,7.52
2023-01-01T03:59:40.362Z,7.42
2023-01-01T04:03:41.815Z,7.53
2023-01-01T04:07:55.162Z,7.80
2023-01-01T04:12:01.729Z,7.90
2023-01-01T04:16:01.486Z,7.96
2023-01-01T04:20:01.261Z,8.04
2023-01-01T04:24:01.041Z,8.07
2023-01-01T04:28:14.354Z,8.06
2023-01-01T04:32:46.901Z,8.07
2023-01-01T04:36:06.489Z,8.16
2023-01-01T04:40:06.441Z,8.10
2023-01-01T04:44:05.895Z,8.20
2023-01-01T04:48:05.591Z,8.31
2023-01-01T04:52:05.648Z,8.29
2023-01-01T04:56:05.848Z,8.24
2023-01-01T05:00:05.616Z,8.44
2023-01-01T05:04:04.911Z,8.58
2023-01-01T05:08:04.672Z,8.44
2023-01-01T05:12:03.949Z,8.52
2023-01-01T05:16:03.940Z,8.61
2023-01-01T05:20:04.105Z,8.68
2023-01-01T05:24:05.585Z,8.64
2023-01-01T05:28:04.805Z,8.84
2023-01-01T05:32:04.188Z,8.93
2023-01-01T05:36:04.961Z,9.02
2023-01-01T05:40:04.687Z,8.91
2023-01-01T05:44:04.937Z,8.84
2023-01-01T05:48:04.448Z,9.01
2023-01-01T05:52:04.204Z,9.13
2023-01-01T05:56:03.948Z,9.31
2023-01-01T06:00:03.356Z,9.35
2023-01-01T06:04:05.991Z,9.31
2023-01-01T06:08:05.514Z,9.32
2023-01-01T06:12:05.295Z,9.24
2023-01-01T06:16:05.112Z,9.28
2023-01-01T06:20:04.762Z,9.50
2023-01-01T06:24:04.604Z,9.43
2023-01-01T06:28:37.247Z,9.41
2023-01-01T06:31:55.498Z,9.34
2023-01-01T06:35:55.040Z,9.30
2023-01-01T06:39:54.320Z,9.28
2023-01-01T06:43:55.397Z,9.39
2023-01-01T06:47:54.974Z,9.44
2023-01-01T06:51:54.401Z,9.40
2023-01-01T06:56:12.721Z,9.53
2023-01-01T06:59:31.364Z,9.47
2023-01-01T07:03:30.901Z,9.59
2023-01-01T07:07:35.750Z,9.62
2023-01-01T07:11:35.756Z,9.56
2023-01-01T07:15:35.473Z,9.46
2023-01-01T07:19:35.824Z,9.67
2023-01-01T07:23:35.764Z,9.61
2023-01-01T07:27:37.571Z,9.55
2023-01-01T07:31:38.190Z,9.55
2023-01-01T07:35:37.771Z,9.73
2023-01-01T07:39:15.154Z,9.62
2023-01-01T07:43:15.113Z,9.60
2023-01-01T07:47:27.090Z,9.59
2023-01-01T07:51:26.714Z,9.59
2023-01-01T07:55:26.414Z,9.68
2023-01-01T07:59:25.808Z,9.63
2023-01-01T08:03:25.440Z,9.67
2023-01-01T08:07:25.233Z,9.96
2023-01-01T08:11:24.555Z,10.01
2023-01-01T08:15:23.970Z,9.86
2023-01-01T08:19:23.373Z,9.90
2023-01-01T08:23:22.719Z,9.84
2023-01-01T08:27:23.730Z,9.85
2023-01-01T08:31:00.528Z,9.88
2023-01-01T08:35:02.091Z,9.89
2023-01-01T08:39:01.861Z,9.92
2023-01-01T08:43:01.357Z,9.84
2023-01-01T08:47:00.988Z,10.09
2023-01-01T08:51:01.875Z,10.15
2023-01-01T08:55:02.124Z,10.04
2023-01-01T08:59:04.536Z,10.10
2023-01-01T09:03:04.705Z,10.08
2023-01-01T09:07:04.973Z,10.02
2023-01-01T09:11:04.898Z,9.97
2023-01-01T09:15:04.869Z,10.13
2023-01-01T09:19:05.353Z,10.10
2023-01-01T09:23:07.512Z,10.11
2023-01-01T09:27:07.539Z,9.94
2023-01-01T09:31:21.112Z,9.94
2023-01-01T09:35:22.072Z,9.99
2023-01-01T09:39:22.301Z,10.24
2023-01-01T09:43:43.468Z,10.08
2023-01-01T09:47:53.174Z,10.06
2023-01-01T09:52:06.930Z,10.16
2023-01-01T09:56:13.825Z,10.12
2023-01-01T09:59:45.981Z,10.22
2023-01-01T10:03:55.498Z,10.11
2023-01-01T10:11:55.141Z,9.99
2023-01-01T10:16:37.497Z,9.93
2023-01-01T10:19:42.785Z,9.84
2023-01-01T10:23:14.325Z,9.73
2023-01-01T10:27:25.461Z,9.83
2023-01-01T10:31:26.622Z,9.73
2023-01-01T10:35:04.203Z,9.72
2023-01-01T10:39:04.293Z,9.58
2023-01-01T10:43:05.424Z,9.64
2023-01-01T10:47:31.120Z,9.77
2023-01-01T10:51:49.425Z,9.81
2023-01-01T10:55:50.278Z,9.65
2023-01-01T10:59:54.250Z,9.70
2023-01-01T11:04:12.936Z,9.88
2023-01-01T11:08:22.110Z,9.79
2023-01-01T11:13:02.872Z,9.83
2023-01-01T11:16:46.805Z,9.88
2023-01-01T11:20:51.876Z,9.92
2023-01-01T11:25:05.645Z,10.12
2023-01-01T11:29:19.179Z,10.02
2023-01-01T11:33:19.279Z,10.19
2023-01-01T11:37:39.488Z,10.24
2023-01-01T11:41:45.784Z,10.29
2023-01-01T11:45:46.512Z,10.13
2023-01-01T11:49:47.833Z,10.03
2023-01-01T11:53:48.388Z,10.21
2023-01-01T11:58:17.502Z,10.35
2023-01-01T12:02:26.845Z,10.19
2023-01-01T12:06:52.652Z,10.18
2023-01-01T12:10:18.668Z,10.10
2023-01-01T12:14:40.437Z,10.04
2023-01-01T12:18:48.825Z,9.96
2023-01-01T12:22:49.352Z,9.98
2023-01-01T12:26:49.121Z,9.92
2023-01-01T12:30:50.135Z,9.96
2023-01-01T12:35:03.377Z,10.05
2023-01-01T12:39:23.094Z,10.25
2023-01-01T12:43:27.356Z,10.51
2023-01-01T12:47:46.200Z,10.26
2023-01-01T12:51:52.420Z,10.13
2023-01-01T12:56:17.547Z,10.00
2023-01-01T13:00:20.898Z,9.91
2023-01-01T13:04:22.159Z,9.90
2023-01-01T13:08:22.618Z,9.80
2023-01-01T13:12:38.357Z,9.74
2023-01-01T13:16:39.426Z,9.81
2023-01-01T13:20:40.965Z,10.09
2023-01-01T13:24:41.110Z,9.94
2023-01-01T13:28:18.235Z,9.68
2023-01-01T13:32:17.920Z,9.89
2023-01-01T13:36:20.566Z,9.70
2023-01-01T13:40:34.345Z,9.63
2023-01-01T13:44:33.723Z,9.65
2023-01-01T13:48:52.854Z,9.51
2023-01-01T13:52:54.468Z,9.45
2023-01-01T13:56:54.453Z,9.30
2023-01-01T14:01:09.215Z,9.32
2023-01-01T14:05:28.113Z,9.36
2023-01-01T14:09:27.737Z,9.30
2023-01-01T14:13:30.262Z,9.28
2023-01-01T14:17:29.774Z,9.27
2023-01-01T14:21:33.809Z,9.24
2023-01-01T14:25:34.019Z,9.22
2023-01-01T14:29:37.186Z,9.14
2023-01-01T14:33:21.704Z,9.24
2023-01-01T14:37:25.049Z,9.28
2023-01-01T14:41:40.017Z,9.29
2023-01-01T14:45:04.401Z,9.38
2023-01-01T14:48:43.716Z,9.31
2023-01-01T14:52:44.412Z,9.23
2023-01-01T14:56:46.398Z,9.20
2023-01-01T15:00:45.777Z,9.02
2023-01-01T15:04:45.405Z,9.04
2023-01-01T15:08:49.438Z,8.84
2023-01-01T15:12:49.026Z,8.84
2023-01-01T15:16:59.881Z,9.09
2023-01-01T15:20:59.852Z,8.97
2023-01-01T15:25:00.517Z,8.89
2023-01-01T15:29:00.978Z,8.93
2023-01-01T15:33:15.171Z,8.96
2023-01-01T15:37:19.573Z,9.04
2023-01-01T15:41:26.585Z,9.01
2023-01-01T15:45:26.036Z,8.71
2023-01-01T15:49:29.095Z,8.43
2023-01-01T15:53:30.440Z,8.30
2023-01-01T15:57:30.541Z,8.21
2023-01-01T16:01:31.174Z,8.26
2023-01-01T16:05:31.777Z,8.32
2023-01-01T16:09:57.042Z,8.34
2023-01-01T16:13:09.531Z,8.34
2023-01-01T16:17:14.030Z,8.23
2023-01-01T16:21:13.778Z,8.14
2023-01-01T16:25:17.307Z,8.01
2023-01-01T16:29:31.359Z,7.90
2023-01-01T16:33:34.542Z,7.87
2023-01-01T16:37:35.948Z,7.74
2023-01-01T16:41:35.192Z,7.69
2023-01-01T16:45:34.499Z,7.68
2023-01-01T16:49:33.838Z,7.64
2023-01-01T16:53:34.062Z,7.63
2023-01-01T16:57:34.420Z,7.64
2023-01-01T17:01:35.041Z,7.62
2023-01-01T17:05:42.061Z,7.58
2023-01-01T17:09:43.856Z,7.57
2023-01-01T17:13:44.677Z,7.53
2023-01-01T17:17:43.976Z,7.47
2023-01-01T17:21:43.754Z,7.51
2023-01-01T17:25:44.001Z,7.50
2023-01-01T17:29:43.514Z,7.43
2023-01-01T17:33:57.650Z,7.31
2023-01-01T17:37:34.776Z,7.26
2023-01-01T17:41:35.357Z,7.15
2023-01-01T17:45:36.750Z,7.08
2023-01-01T17:49:49.857Z,6.99
2023-01-01T17:53:49.927Z,6.91
2023-01-01T17:57:51.957Z,6.85
2023-01-01T18:01:51.401Z,6.89
2023-01-01T18:05:55.534Z,6.93
2023-01-01T18:09:57.226Z,6.86
2023-01-01T18:13:32.782Z,6.80
2023-01-01T18:17:31.859Z,6.76
2023-01-01T18:21:32.634Z,6.81
2023-01-01T18:25:32.938Z,6.77
2023-01-01T18:29:47.631Z,6.75
2023-01-01T18:33:47.879Z,6.71
2023-01-01T18:37:47.816Z,6.67
2023-01-01T18:41:55.576Z,6.61
2023-01-01T18:45:55.729Z,6.53
2023-01-01T18:50:03.516Z,6.44
2023-01-01T18:54:16.968Z,6.35
2023-01-01T18:58:16.725Z,6.31
2023-01-01T19:02:35.302Z,6.27
2023-01-01T19:06:34.873Z,6.19
2023-01-01T19:10:39.523Z,6.16
2023-01-01T19:14:39.444Z,6.11
2023-01-01T19:18:40.481Z,6.06
2023-01-01T19:22:41.039Z,5.99
2023-01-01T19:26:41.532Z,5.92
2023-01-01T19:30:41.953Z,5.90
2023-01-01T19:34:57.626Z,5.88
2023-01-01T19:38:58.250Z,5.87
2023-01-01T19:42:58.806Z,5.85
2023-01-01T19:46:58.580Z,5.87
2023-01-01T19:50:58.339Z,5.91
2023-01-01T19:54:57.990Z,5.98
2023-01-01T19:58:57.861Z,6.03
2023-01-01T20:03:12.931Z,6.08
2023-01-01T20:07:17.900Z,6.12
2023-01-01T20:11:17.574Z,6.11
2023-01-01T20:15:17.056Z,6.11
2023-01-01T20:19:16.597Z,6.07
2023-01-01T20:23:16.459Z,6.03
2023-01-01T20:28:01.581Z,6.00
2023-01-01T20:31:00.422Z,6.01
2023-01-01T20:35:00.102Z,6.02
2023-01-01T20:39:00.115Z,5.94
2023-01-01T20:42:59.495Z,5.87
2023-01-01T20:46:59.593Z,5.81
2023-01-01T20:50:59.684Z,5.78
2023-01-01T20:59:36.566Z,5.70
2023-01-01T21:03:37.316Z,5.69
2023-01-01T21:07:36.872Z,5.67
2023-01-01T21:11:36.647Z,5.65
2023-01-01T21:15:36.035Z,5.61
2023-01-01T21:19:35.425Z,5.59
2023-01-01T21:23:58.529Z,5.59
2023-01-01T21:27:25.028Z,5.62
2023-01-01T21:31:24.507Z,5.63
2023-01-01T21:35:24.038Z,5.59
2023-01-01T21:39:27.791Z,5.45
2023-01-01T21:43:37.654Z,5.25
2023-01-01T21:47:38.882Z,5.06
2023-01-01T21:51:43.091Z,4.95
2023-01-01T21:55:56.814Z,4.88
2023-01-01T21:59:57.547Z,4.88
2023-01-01T22:03:34.476Z,4.92
2023-01-01T22:11:59.714Z,4.98
2023-01-01T22:15:59.418Z,4.96
2023-01-01T22:20:06.868Z,4.99
2023-01-01T22:24:15.787Z,5.06
2023-01-01T22:28:23.723Z,5.18
2023-01-01T22:32:23.495Z,5.36
2023-01-01T22:36:26.521Z,5.54
2023-01-01T22:40:30.265Z,5.69
2023-01-01T22:44:33.945Z,5.79
2023-01-01T22:48:35.162Z,5.85
2023-01-01T22:52:34.927Z,5.89
2023-01-01T22:56:34.859Z,5.89
2023-01-01T23:00:50.186Z,5.88
2023-01-01T23:04:49.588Z,5.84
2023-01-01T23:08:50.734Z,5.76
2023-01-01T23:17:03.735Z,5.72
2023-01-01T23:21:05.059Z,5.69
2023-01-01T23:25:05.346Z,5.64
2023-01-01T23:29:05.566Z,5.60
2023-01-01T23:33:05.225Z,5.60
2023-01-01T23:37:04.678Z,5.57
2023-01-01T23:41:03.814Z,5.49
2023-01-01T23:45:16.920Z,5.41
2023-01-01T23:49:17.471Z,5.36
2023-01-01T23:53:16.771Z,5.32
2023-01-01T23:57:16.075Z,5.25
